sensor_id;sensor_type;location;lat;lon;timestamp;pressure;altitude;pressure_sealevel;temperature;humidity
29063;BME280;71206;48.564;-123.458;2023-11-19T00:01:51;99569.54;;;10.96;73.60
29063;BME280;71206;48.564;-123.458;2023-11-19T00:04:18;99565.09;;;10.20;75.76
29063;BME280;71206;48.564;-123.458;2023-11-19T00:06:42;99570.95;;;10.31;81.82
29063;BME280;71206;48.564;-123.458;2023-11-19T00:09:08;99566.87;;;11.25;74.53
29063;BME280;71206;48.564;-123.458;2023-11-19T00:11:33;99563.53;;;10.42;78.10
29063;BME280;71206;48.564;-123.458;2023-11-19T00:13:58;99558.40;;;9.92;82.25
29063;BME280;71206;48.564;-123.458;2023-11-19T00:16:24;99555.16;;;9.59;84.43
29063;BME280;71206;48.564;-123.458;2023-11-19T00:18:49;99554.35;;;9.66;86.85
29063;BME280;71206;48.564;-123.458;2023-11-19T00:21:21;99556.06;;;9.82;85.40
29063;BME280;71206;48.564;-123.458;2023-11-19T00:23:41;99551.78;;;10.17;79.04
29063;BME280;71206;48.564;-123.458;2023-11-19T00:26:07;99548.64;;;10.05;77.51
29063;BME280;71206;48.564;-123.458;2023-11-19T00:28:31;99541.71;;;10.48;73.53
29063;BME280;71206;48.564;-123.458;2023-11-19T00:30:58;99537.65;;;10.45;73.77
29063;BME280;71206;48.564;-123.458;2023-11-19T00:33:23;99533.44;;;10.39;76.15
29063;BME280;71206;48.564;-123.458;2023-11-19T00:35:47;99530.58;;;10.93;72.83
29063;BME280;71206;48.564;-123.458;2023-11-19T00:38:17;99527.66;;;10.67;72.29
29063;BME280;71206;48.564;-123.458;2023-11-19T00:40:38;99527.94;;;10.48;73.22
29063;BME280;71206;48.564;-123.458;2023-11-19T00:43:04;99520.85;;;9.86;76.68
29063;BME280;71206;48.564;-123.458;2023-11-19T00:45:28;99508.88;;;9.60;78.22
29063;BME280;71206;48.564;-123.458;2023-11-19T00:47:54;99512.67;;;9.45;81.72
29063;BME280;71206;48.564;-123.458;2023-11-19T00:50:19;99509.07;;;9.33;75.82
29063;BME280;71206;48.564;-123.458;2023-11-19T00:52:45;99514.98;;;10.16;73.93
29063;BME280;71206;48.564;-123.458;2023-11-19T00:55:10;99525.30;;;9.43;78.08
29063;BME280;71206;48.564;-123.458;2023-11-19T00:57:35;99527.13;;;9.60;78.17
29063;BME280;71206;48.564;-123.458;2023-11-19T01:00:00;99526.17;;;9.46;82.85
29063;BME280;71206;48.564;-123.458;2023-11-19T01:02:27;99529.53;;;9.30;83.75
29063;BME280;71206;48.564;-123.458;2023-11-19T01:04:52;99524.56;;;8.98;82.64
29063;BME280;71206;48.564;-123.458;2023-11-19T01:07:17;99511.52;;;9.23;80.20
29063;BME280;71206;48.564;-123.458;2023-11-19T01:09:43;99505.59;;;9.60;76.16
29063;BME280;71206;48.564;-123.458;2023-11-19T01:12:08;99503.48;;;9.69;78.82
29063;BME280;71206;48.564;-123.458;2023-11-19T01:14:33;99502.78;;;9.92;79.66
29063;BME280;71206;48.564;-123.458;2023-11-19T01:16:59;99502.92;;;9.32;80.36
29063;BME280;71206;48.564;-123.458;2023-11-19T01:19:25;99496.89;;;10.34;75.17
29063;BME280;71206;48.564;-123.458;2023-11-19T01:21:50;99502.56;;;9.73;78.97
29063;BME280;71206;48.564;-123.458;2023-11-19T01:24:15;99504.36;;;9.76;78.56
29063;BME280;71206;48.564;-123.458;2023-11-19T01:26:42;99510.44;;;9.74;73.99
29063;BME280;71206;48.564;-123.458;2023-11-19T01:29:06;99508.77;;;10.36;72.18
29063;BME280;71206;48.564;-123.458;2023-11-19T01:31:31;99501.00;;;9.86;73.10
29063;BME280;71206;48.564;-123.458;2023-11-19T01:33:57;99496.44;;;10.30;70.87
29063;BME280;71206;48.564;-123.458;2023-11-19T01:36:23;99497.73;;;9.77;73.24
29063;BME280;71206;48.564;-123.458;2023-11-19T01:38:48;99495.13;;;9.32;75.17
29063;BME280;71206;48.564;-123.458;2023-11-19T01:41:14;99488.13;;;9.61;73.63
29063;BME280;71206;48.564;-123.458;2023-11-19T01:43:39;99482.51;;;9.30;75.29
29063;BME280;71206;48.564;-123.458;2023-11-19T01:46:05;99482.15;;;9.19;77.37
29063;BME280;71206;48.564;-123.458;2023-11-19T01:48:31;99479.96;;;9.45;78.25
29063;BME280;71206;48.564;-123.458;2023-11-19T01:50:56;99474.28;;;9.30;78.35
29063;BME280;71206;48.564;-123.458;2023-11-19T01:53:21;99470.93;;;9.61;76.05
29063;BME280;71206;48.564;-123.458;2023-11-19T01:55:52;99462.86;;;9.50;77.38
29063;BME280;71206;48.564;-123.458;2023-11-19T01:58:11;99463.24;;;8.97;80.28
29063;BME280;71206;48.564;-123.458;2023-11-19T02:00:36;99458.62;;;9.56;77.89
29063;BME280;71206;48.564;-123.458;2023-11-19T02:03:02;99452.09;;;9.58;77.44
29063;BME280;71206;48.564;-123.458;2023-11-19T02:05:28;99451.25;;;9.56;77.54
29063;BME280;71206;48.564;-123.458;2023-11-19T02:07:54;99455.63;;;9.44;76.70
29063;BME280;71206;48.564;-123.458;2023-11-19T02:10:19;99452.65;;;9.20;75.48
29063;BME280;71206;48.564;-123.458;2023-11-19T02:12:44;99452.44;;;9.52;76.00
29063;BME280;71206;48.564;-123.458;2023-11-19T02:15:10;99449.49;;;9.74;68.80
29063;BME280;71206;48.564;-123.458;2023-11-19T02:17:35;99444.37;;;9.75;71.41
29063;BME280;71206;48.564;-123.458;2023-11-19T02:20:04;99446.58;;;9.52;69.71
29063;BME280;71206;48.564;-123.458;2023-11-19T02:22:26;99443.27;;;9.94;69.42
29063;BME280;71206;48.564;-123.458;2023-11-19T02:24:55;99439.83;;;9.83;70.56
29063;BME280;71206;48.564;-123.458;2023-11-19T02:27:23;99442.08;;;9.29;74.43
29063;BME280;71206;48.564;-123.458;2023-11-19T02:29:42;99441.80;;;9.50;71.28
29063;BME280;71206;48.564;-123.458;2023-11-19T02:32:12;99442.55;;;9.44;76.91
29063;BME280;71206;48.564;-123.458;2023-11-19T02:34:33;99440.11;;;9.18;80.46
29063;BME280;71206;48.564;-123.458;2023-11-19T02:36:59;99443.58;;;8.77;84.57
29063;BME280;71206;48.564;-123.458;2023-11-19T02:39:24;99448.11;;;8.84;83.33
29063;BME280;71206;48.564;-123.458;2023-11-19T02:41:50;99442.41;;;8.94;81.31
29063;BME280;71206;48.564;-123.458;2023-11-19T02:44:17;99438.78;;;9.51;77.02
29063;BME280;71206;48.564;-123.458;2023-11-19T02:46:42;99443.38;;;8.90;80.37
29063;BME280;71206;48.564;-123.458;2023-11-19T02:49:06;99443.46;;;9.24;78.78
29063;BME280;71206;48.564;-123.458;2023-11-19T02:51:31;99448.06;;;9.38;78.08
29063;BME280;71206;48.564;-123.458;2023-11-19T02:53:57;99443.09;;;9.60;76.46
29063;BME280;71206;48.564;-123.458;2023-11-19T02:56:23;99441.97;;;9.79;77.77
29063;BME280;71206;48.564;-123.458;2023-11-19T02:58:48;99441.89;;;9.46;76.61
29063;BME280;71206;48.564;-123.458;2023-11-19T03:01:13;99441.47;;;9.74;79.41
29063;BME280;71206;48.564;-123.458;2023-11-19T03:03:38;99440.43;;;9.97;75.53
29063;BME280;71206;48.564;-123.458;2023-11-19T03:06:04;99439.20;;;9.01;79.74
29063;BME280;71206;48.564;-123.458;2023-11-19T03:08:30;99438.45;;;9.53;79.47
29063;BME280;71206;48.564;-123.458;2023-11-19T03:10:55;99436.97;;;9.44;76.37
29063;BME280;71206;48.564;-123.458;2023-11-19T03:13:19;99441.76;;;9.66;75.65
29063;BME280;71206;48.564;-123.458;2023-11-19T03:15:45;99436.51;;;9.17;83.07
29063;BME280;71206;48.564;-123.458;2023-11-19T03:18:10;99437.42;;;9.24;81.92
29063;BME280;71206;48.564;-123.458;2023-11-19T03:20:36;99438.39;;;9.43;80.87
29063;BME280;71206;48.564;-123.458;2023-11-19T03:23:02;99434.21;;;9.20;81.61
29063;BME280;71206;48.564;-123.458;2023-11-19T03:25:28;99433.65;;;8.99;82.55
29063;BME280;71206;48.564;-123.458;2023-11-19T03:27:52;99430.92;;;8.93;84.29
29063;BME280;71206;48.564;-123.458;2023-11-19T03:30:18;99432.93;;;8.68;92.38
29063;BME280;71206;48.564;-123.458;2023-11-19T03:32:44;99433.52;;;8.86;89.46
29063;BME280;71206;48.564;-123.458;2023-11-19T03:35:09;99436.01;;;8.85;90.28
29063;BME280;71206;48.564;-123.458;2023-11-19T03:37:38;99436.72;;;9.04;90.96
29063;BME280;71206;48.564;-123.458;2023-11-19T03:39:59;99435.57;;;9.14;86.76
29063;BME280;71206;48.564;-123.458;2023-11-19T03:42:25;99439.03;;;8.85;92.33
29063;BME280;71206;48.564;-123.458;2023-11-19T03:44:53;99440.79;;;9.12;88.24
29063;BME280;71206;48.564;-123.458;2023-11-19T03:47:16;99444.41;;;8.82;89.98
29063;BME280;71206;48.564;-123.458;2023-11-19T03:49:41;99450.61;;;8.72;91.44
29063;BME280;71206;48.564;-123.458;2023-11-19T03:52:07;99450.44;;;9.21;91.16
29063;BME280;71206;48.564;-123.458;2023-11-19T03:54:31;99457.17;;;9.31;87.68
29063;BME280;71206;48.564;-123.458;2023-11-19T03:56:56;99466.65;;;9.00;83.87
29063;BME280;71206;48.564;-123.458;2023-11-19T03:59:23;99474.58;;;9.42;82.03
29063;BME280;71206;48.564;-123.458;2023-11-19T04:01:52;99474.32;;;9.75;76.12
29063;BME280;71206;48.564;-123.458;2023-11-19T04:04:13;99476.84;;;9.76;76.59
29063;BME280;71206;48.564;-123.458;2023-11-19T04:06:38;99472.79;;;10.28;74.19
29063;BME280;71206;48.564;-123.458;2023-11-19T04:09:03;99476.02;;;9.96;77.81
29063;BME280;71206;48.564;-123.458;2023-11-19T04:11:29;99481.76;;;9.32;80.93
29063;BME280;71206;48.564;-123.458;2023-11-19T04:13:55;99487.63;;;9.38;81.05
29063;BME280;71206;48.564;-123.458;2023-11-19T04:18:45;99485.63;;;9.52;81.45
29063;BME280;71206;48.564;-123.458;2023-11-19T04:21:12;99487.07;;;9.68;83.76
29063;BME280;71206;48.564;-123.458;2023-11-19T04:23:37;99489.47;;;9.79;79.12
29063;BME280;71206;48.564;-123.458;2023-11-19T04:26:04;99490.58;;;9.84;80.79
29063;BME280;71206;48.564;-123.458;2023-11-19T04:28:28;99487.14;;;9.56;86.98
29063;BME280;71206;48.564;-123.458;2023-11-19T04:30:53;99493.51;;;10.47;78.54
29063;BME280;71206;48.564;-123.458;2023-11-19T04:33:19;99501.14;;;10.10;82.19
29063;BME280;71206;48.564;-123.458;2023-11-19T04:35:45;99505.58;;;10.48;82.15
29063;BME280;71206;48.564;-123.458;2023-11-19T04:38:10;99500.52;;;9.23;92.83
29063;BME280;71206;48.564;-123.458;2023-11-19T04:40:36;99490.65;;;9.11;95.03
29063;BME280;71206;48.564;-123.458;2023-11-19T04:43:02;99501.77;;;8.64;100.00
29063;BME280;71206;48.564;-123.458;2023-11-19T04:45:31;99502.99;;;8.89;100.00
29063;BME280;71206;48.564;-123.458;2023-11-19T04:47:54;99497.22;;;9.26;99.57
29063;BME280;71206;48.564;-123.458;2023-11-19T04:50:18;99498.70;;;8.74;100.00
29063;BME280;71206;48.564;-123.458;2023-11-19T04:52:43;99511.43;;;8.49;100.00
29063;BME280;71206;48.564;-123.458;2023-11-19T04:55:09;99509.57;;;9.01;100.00
29063;BME280;71206;48.564;-123.458;2023-11-19T04:57:34;99518.36;;;9.31;100.00
29063;BME280;71206;48.564;-123.458;2023-11-19T05:00:01;99521.08;;;9.29;100.00
29063;BME280;71206;48.564;-123.458;2023-11-19T05:02:25;99514.88;;;8.97;100.00
29063;BME280;71206;48.564;-123.458;2023-11-19T05:04:50;99508.27;;;8.98;100.00
29063;BME280;71206;48.564;-123.458;2023-11-19T05:07:17;99507.29;;;9.39;100.00
29063;BME280;71206;48.564;-123.458;2023-11-19T05:09:42;99513.78;;;8.97;100.00
29063;BME280;71206;48.564;-123.458;2023-11-19T05:12:07;99508.80;;;7.58;100.00
29063;BME280;71206;48.564;-123.458;2023-11-19T05:14:32;99514.27;;;8.19;100.00
29063;BME280;71206;48.564;-123.458;2023-11-19T05:16:57;99529.19;;;7.83;100.00
29063;BME280;71206;48.564;-123.458;2023-11-19T05:19:22;99525.69;;;7.99;100.00
29063;BME280;71206;48.564;-123.458;2023-11-19T05:21:49;99528.43;;;8.59;100.00
29063;BME280;71206;48.564;-123.458;2023-11-19T05:24:14;99529.81;;;9.20;100.00
29063;BME280;71206;48.564;-123.458;2023-11-19T05:26:42;99534.36;;;8.41;100.00
29063;BME280;71206;48.564;-123.458;2023-11-19T05:29:04;99529.44;;;8.97;100.00
29063;BME280;71206;48.564;-123.458;2023-11-19T05:31:29;99538.63;;;8.33;100.00
29063;BME280;71206;48.564;-123.458;2023-11-19T05:33:55;99534.48;;;8.48;100.00
29063;BME280;71206;48.564;-123.458;2023-11-19T05:36:20;99539.27;;;7.99;100.00
29063;BME280;71206;48.564;-123.458;2023-11-19T05:38:45;99542.27;;;8.31;100.00
29063;BME280;71206;48.564;-123.458;2023-11-19T05:41:12;99550.06;;;8.96;100.00
29063;BME280;71206;48.564;-123.458;2023-11-19T05:43:37;99553.78;;;9.16;100.00
29063;BME280;71206;48.564;-123.458;2023-11-19T05:46:03;99556.61;;;8.44;100.00
29063;BME280;71206;48.564;-123.458;2023-11-19T05:48:28;99558.18;;;8.78;100.00
29063;BME280;71206;48.564;-123.458;2023-11-19T05:50:53;99561.29;;;9.06;100.00
29063;BME280;71206;48.564;-123.458;2023-11-19T05:53:19;99560.82;;;9.58;100.00
29063;BME280;71206;48.564;-123.458;2023-11-19T05:55:44;99562.95;;;9.32;100.00
29063;BME280;71206;48.564;-123.458;2023-11-19T05:58:10;99569.75;;;8.88;100.00
29063;BME280;71206;48.564;-123.458;2023-11-19T06:00:35;99578.78;;;8.27;100.00
29063;BME280;71206;48.564;-123.458;2023-11-19T06:03:01;99593.10;;;7.05;100.00
29063;BME280;71206;48.564;-123.458;2023-11-19T06:05:25;99597.04;;;7.32;100.00
29063;BME280;71206;48.564;-123.458;2023-11-19T06:07:52;99598.80;;;7.70;100.00
29063;BME280;71206;48.564;-123.458;2023-11-19T06:10:16;99597.88;;;7.54;100.00
29063;BME280;71206;48.564;-123.458;2023-11-19T06:12:41;99601.18;;;7.68;100.00
29063;BME280;71206;48.564;-123.458;2023-11-19T06:15:10;99603.08;;;8.51;100.00
29063;BME280;71206;48.564;-123.458;2023-11-19T06:17:32;99607.24;;;8.44;100.00
29063;BME280;71206;48.564;-123.458;2023-11-19T06:19:57;99613.27;;;9.07;100.00
29063;BME280;71206;48.564;-123.458;2023-11-19T06:22:23;99617.61;;;8.44;100.00
29063;BME280;71206;48.564;-123.458;2023-11-19T06:24:48;99617.40;;;8.63;100.00
29063;BME280;71206;48.564;-123.458;2023-11-19T06:27:14;99625.48;;;8.43;100.00
29063;BME280;71206;48.564;-123.458;2023-11-19T06:29:41;99631.76;;;8.10;100.00
29063;BME280;71206;48.564;-123.458;2023-11-19T06:32:05;99637.32;;;7.45;100.00
29063;BME280;71206;48.564;-123.458;2023-11-19T06:34:30;99637.97;;;7.57;100.00
29063;BME280;71206;48.564;-123.458;2023-11-19T06:36:56;99646.92;;;7.20;100.00
29063;BME280;71206;48.564;-123.458;2023-11-19T06:39:21;99645.21;;;8.02;100.00
29063;BME280;71206;48.564;-123.458;2023-11-19T06:41:47;99648.25;;;7.75;100.00
29063;BME280;71206;48.564;-123.458;2023-11-19T06:44:14;99652.60;;;7.85;100.00
29063;BME280;71206;48.564;-123.458;2023-11-19T06:46:37;99657.00;;;7.47;100.00
29063;BME280;71206;48.564;-123.458;2023-11-19T06:49:02;99659.15;;;7.71;100.00
29063;BME280;71206;48.564;-123.458;2023-11-19T06:51:27;99660.91;;;7.44;100.00
29063;BME280;71206;48.564;-123.458;2023-11-19T06:53:52;99664.34;;;7.81;100.00
29063;BME280;71206;48.564;-123.458;2023-11-19T06:56:21;99660.84;;;8.35;100.00
29063;BME280;71206;48.564;-123.458;2023-11-19T06:58:43;99665.56;;;7.99;100.00
29063;BME280;71206;48.564;-123.458;2023-11-19T07:01:08;99671.87;;;7.98;100.00
29063;BME280;71206;48.564;-123.458;2023-11-19T07:03:35;99684.15;;;7.84;100.00
29063;BME280;71206;48.564;-123.458;2023-11-19T07:05:59;99681.96;;;7.94;100.00
29063;BME280;71206;48.564;-123.458;2023-11-19T07:08:25;99686.87;;;8.00;100.00
29063;BME280;71206;48.564;-123.458;2023-11-19T07:10:50;99702.04;;;7.71;100.00
29063;BME280;71206;48.564;-123.458;2023-11-19T07:13:15;99705.50;;;7.53;100.00
29063;BME280;71206;48.564;-123.458;2023-11-19T07:15:41;99706.89;;;7.54;100.00
29063;BME280;71206;48.564;-123.458;2023-11-19T07:18:06;99704.73;;;8.13;100.00
29063;BME280;71206;48.564;-123.458;2023-11-19T07:20:32;99715.29;;;7.80;100.00
29063;BME280;71206;48.564;-123.458;2023-11-19T07:22:56;99725.64;;;8.15;100.00
29063;BME280;71206;48.564;-123.458;2023-11-19T07:25:21;99734.77;;;8.59;100.00
29063;BME280;71206;48.564;-123.458;2023-11-19T07:27:49;99742.03;;;8.47;100.00
29063;BME280;71206;48.564;-123.458;2023-11-19T07:30:14;99745.85;;;7.89;100.00
29063;BME280;71206;48.564;-123.458;2023-11-19T07:32:38;99753.86;;;7.04;100.00
29063;BME280;71206;48.564;-123.458;2023-11-19T07:35:03;99766.83;;;7.00;100.00
29063;BME280;71206;48.564;-123.458;2023-11-19T07:37:28;99763.76;;;8.28;100.00
29063;BME280;71206;48.564;-123.458;2023-11-19T07:39:53;99777.93;;;7.31;100.00
29063;BME280;71206;48.564;-123.458;2023-11-19T07:42:19;99793.29;;;8.04;100.00
29063;BME280;71206;48.564;-123.458;2023-11-19T07:44:46;99787.80;;;7.91;100.00
29063;BME280;71206;48.564;-123.458;2023-11-19T07:47:09;99811.05;;;7.48;100.00
29063;BME280;71206;48.564;-123.458;2023-11-19T07:49:35;99809.78;;;7.35;100.00
29063;BME280;71206;48.564;-123.458;2023-11-19T07:52:00;99833.20;;;7.08;100.00
29063;BME280;71206;48.564;-123.458;2023-11-19T07:54:25;99825.49;;;6.46;100.00
29063;BME280;71206;48.564;-123.458;2023-11-19T07:56:50;99832.03;;;7.18;100.00
29063;BME280;71206;48.564;-123.458;2023-11-19T07:59:21;99829.57;;;7.83;100.00
29063;BME280;71206;48.564;-123.458;2023-11-19T08:01:41;99837.26;;;7.71;100.00
29063;BME280;71206;48.564;-123.458;2023-11-19T08:04:06;99843.06;;;8.19;100.00
29063;BME280;71206;48.564;-123.458;2023-11-19T08:06:31;99848.20;;;8.84;100.00
29063;BME280;71206;48.564;-123.458;2023-11-19T08:08:57;99841.25;;;8.10;100.00
29063;BME280;71206;48.564;-123.458;2023-11-19T08:11:22;99848.43;;;8.32;100.00
29063;BME280;71206;48.564;-123.458;2023-11-19T08:13:50;99867.73;;;7.89;100.00
29063;BME280;71206;48.564;-123.458;2023-11-19T08:16:13;99878.48;;;8.42;100.00
29063;BME280;71206;48.564;-123.458;2023-11-19T08:18:38;99893.11;;;7.82;100.00
29063;BME280;71206;48.564;-123.458;2023-11-19T08:21:03;99907.40;;;8.16;100.00
29063;BME280;71206;48.564;-123.458;2023-11-19T08:23:29;99900.85;;;8.33;100.00
29063;BME280;71206;48.564;-123.458;2023-11-19T08:25:54;99893.70;;;7.83;100.00
29063;BME280;71206;48.564;-123.458;2023-11-19T08:28:19;99896.48;;;7.74;100.00
29063;BME280;71206;48.564;-123.458;2023-11-19T08:30:44;99916.32;;;8.08;100.00
29063;BME280;71206;48.564;-123.458;2023-11-19T08:33:10;99936.19;;;7.55;100.00
29063;BME280;71206;48.564;-123.458;2023-11-19T08:35:36;99936.44;;;7.68;100.00
29063;BME280;71206;48.564;-123.458;2023-11-19T08:38:00;99951.55;;;7.30;100.00
29063;BME280;71206;48.564;-123.458;2023-11-19T08:40:26;99954.34;;;7.29;100.00
29063;BME280;71206;48.564;-123.458;2023-11-19T08:42:52;99956.75;;;6.93;100.00
29063;BME280;71206;48.564;-123.458;2023-11-19T08:45:16;99967.68;;;7.20;100.00
29063;BME280;71206;48.564;-123.458;2023-11-19T08:47:43;99966.20;;;7.45;100.00
29063;BME280;71206;48.564;-123.458;2023-11-19T08:50:07;99965.77;;;6.95;100.00
29063;BME280;71206;48.564;-123.458;2023-11-19T08:52:33;99977.96;;;7.17;100.00
29063;BME280;71206;48.564;-123.458;2023-11-19T08:54:58;99988.10;;;7.02;100.00
29063;BME280;71206;48.564;-123.458;2023-11-19T08:57:22;99978.81;;;7.32;100.00
29063;BME280;71206;48.564;-123.458;2023-11-19T08:59:48;99963.66;;;7.92;100.00
29063;BME280;71206;48.564;-123.458;2023-11-19T09:02:13;100000.29;;;7.69;100.00
29063;BME280;71206;48.564;-123.458;2023-11-19T09:04:40;100019.46;;;8.14;100.00
29063;BME280;71206;48.564;-123.458;2023-11-19T09:07:06;100022.44;;;6.85;100.00
29063;BME280;71206;48.564;-123.458;2023-11-19T09:09:29;100034.96;;;7.39;100.00
29063;BME280;71206;48.564;-123.458;2023-11-19T09:11:54;100023.66;;;6.87;100.00
29063;BME280;71206;48.564;-123.458;2023-11-19T09:14:20;100015.11;;;7.88;100.00
29063;BME280;71206;48.564;-123.458;2023-11-19T09:16:45;100022.66;;;6.50;100.00
29063;BME280;71206;48.564;-123.458;2023-11-19T09:19:10;100027.42;;;6.91;100.00
29063;BME280;71206;48.564;-123.458;2023-11-19T09:21:38;100042.10;;;6.81;100.00
29063;BME280;71206;48.564;-123.458;2023-11-19T09:24:01;100048.30;;;6.68;100.00
29063;BME280;71206;48.564;-123.458;2023-11-19T09:26:27;100059.21;;;6.65;100.00
29063;BME280;71206;48.564;-123.458;2023-11-19T09:28:51;100070.90;;;6.79;100.00
29063;BME280;71206;48.564;-123.458;2023-11-19T09:31:18;100074.49;;;7.22;100.00
29063;BME280;71206;48.564;-123.458;2023-11-19T09:33:42;100081.22;;;7.59;100.00
29063;BME280;71206;48.564;-123.458;2023-11-19T09:36:08;100095.52;;;7.83;100.00
29063;BME280;71206;48.564;-123.458;2023-11-19T09:38:33;100094.37;;;8.41;100.00
29063;BME280;71206;48.564;-123.458;2023-11-19T09:40:59;100096.68;;;8.71;100.00
29063;BME280;71206;48.564;-123.458;2023-11-19T09:43:24;100079.88;;;8.67;100.00
29063;BME280;71206;48.564;-123.458;2023-11-19T09:45:50;100104.96;;;8.42;100.00
29063;BME280;71206;48.564;-123.458;2023-11-19T09:48:17;100096.95;;;7.06;100.00
29063;BME280;71206;48.564;-123.458;2023-11-19T09:50:40;100112.07;;;7.50;100.00
29063;BME280;71206;48.564;-123.458;2023-11-19T09:53:05;100122.15;;;8.10;100.00
29063;BME280;71206;48.564;-123.458;2023-11-19T09:55:32;100136.26;;;7.96;100.00
29063;BME280;71206;48.564;-123.458;2023-11-19T09:57:56;100141.72;;;8.22;100.00
29063;BME280;71206;48.564;-123.458;2023-11-19T10:00:23;100145.29;;;7.33;100.00
29063;BME280;71206;48.564;-123.458;2023-11-19T10:02:46;100169.42;;;6.61;100.00
29063;BME280;71206;48.564;-123.458;2023-11-19T10:05:11;100159.73;;;6.51;100.00
29063;BME280;71206;48.564;-123.458;2023-11-19T10:07:36;100157.24;;;7.64;100.00
29063;BME280;71206;48.564;-123.458;2023-11-19T10:10:02;100178.35;;;7.13;100.00
29063;BME280;71206;48.564;-123.458;2023-11-19T10:12:29;100195.90;;;7.51;100.00
29063;BME280;71206;48.564;-123.458;2023-11-19T10:14:53;100200.19;;;7.91;100.00
29063;BME280;71206;48.564;-123.458;2023-11-19T10:17:17;100216.34;;;7.59;100.00
29063;BME280;71206;48.564;-123.458;2023-11-19T10:19:43;100221.30;;;7.26;100.00
29063;BME280;71206;48.564;-123.458;2023-11-19T10:22:08;100229.62;;;7.22;100.00
29063;BME280;71206;48.564;-123.458;2023-11-19T10:24:34;100220.22;;;7.89;100.00
29063;BME280;71206;48.564;-123.458;2023-11-19T10:27:00;100239.89;;;8.36;100.00
29063;BME280;71206;48.564;-123.458;2023-11-19T10:29:25;100250.29;;;7.33;100.00
29063;BME280;71206;48.564;-123.458;2023-11-19T10:31:57;100273.15;;;6.48;100.00
29063;BME280;71206;48.564;-123.458;2023-11-19T10:36:40;100280.31;;;7.19;100.00
29063;BME280;71206;48.564;-123.458;2023-11-19T10:39:05;100292.47;;;6.80;100.00
29063;BME280;71206;48.564;-123.458;2023-11-19T10:41:33;100303.17;;;7.70;100.00
29063;BME280;71206;48.564;-123.458;2023-11-19T10:43:56;100313.16;;;7.43;100.00
29063;BME280;71206;48.564;-123.458;2023-11-19T10:46:21;100334.22;;;7.18;100.00
29063;BME280;71206;48.564;-123.458;2023-11-19T10:48:46;100343.52;;;6.64;100.00
29063;BME280;71206;48.564;-123.458;2023-11-19T10:51:16;100354.18;;;6.92;100.00
29063;BME280;71206;48.564;-123.458;2023-11-19T10:53:38;100360.39;;;6.77;100.00
29063;BME280;71206;48.564;-123.458;2023-11-19T10:56:10;100381.13;;;6.30;100.00
29063;BME280;71206;48.564;-123.458;2023-11-19T10:58:29;100387.46;;;6.13;100.00
29063;BME280;71206;48.564;-123.458;2023-11-19T11:00:57;100386.47;;;6.42;100.00
29063;BME280;71206;48.564;-123.458;2023-11-19T11:03:20;100401.88;;;6.76;100.00
29063;BME280;71206;48.564;-123.458;2023-11-19T11:05:44;100405.83;;;6.35;100.00
29063;BME280;71206;48.564;-123.458;2023-11-19T11:08:09;100416.71;;;5.94;100.00
29063;BME280;71206;48.564;-123.458;2023-11-19T11:10:38;100416.05;;;6.45;100.00
29063;BME280;71206;48.564;-123.458;2023-11-19T11:13:00;100424.07;;;6.87;100.00
29063;BME280;71206;48.564;-123.458;2023-11-19T11:15:27;100437.54;;;6.27;100.00
29063;BME280;71206;48.564;-123.458;2023-11-19T11:17:54;100444.81;;;5.76;100.00
29063;BME280;71206;48.564;-123.458;2023-11-19T11:20:15;100465.37;;;6.30;100.00
29063;BME280;71206;48.564;-123.458;2023-11-19T11:22:59;100478.55;;;6.41;100.00
29063;BME280;71206;48.564;-123.458;2023-11-19T11:25:18;100489.70;;;6.27;100.00
29063;BME280;71206;48.564;-123.458;2023-11-19T11:27:48;100506.34;;;5.94;100.00
29063;BME280;71206;48.564;-123.458;2023-11-19T11:30:04;100521.86;;;6.42;100.00
29063;BME280;71206;48.564;-123.458;2023-11-19T11:32:30;100529.23;;;7.20;100.00
29063;BME280;71206;48.564;-123.458;2023-11-19T11:34:55;100524.65;;;7.90;100.00
29063;BME280;71206;48.564;-123.458;2023-11-19T11:37:19;100541.84;;;7.53;100.00
29063;BME280;71206;48.564;-123.458;2023-11-19T11:39:40;100553.08;;;7.30;100.00
29063;BME280;71206;48.564;-123.458;2023-11-19T11:46:55;100549.00;;;6.52;100.00
29063;BME280;71206;48.564;-123.458;2023-11-19T11:49:27;100570.55;;;6.63;100.00
29063;BME280;71206;48.564;-123.458;2023-11-19T11:51:59;100575.48;;;6.55;100.00
29063;BME280;71206;48.564;-123.458;2023-11-19T11:56:37;100589.27;;;6.64;100.00
29063;BME280;71206;48.564;-123.458;2023-11-19T11:59:00;100602.77;;;6.38;100.00
29063;BME280;71206;48.564;-123.458;2023-11-19T12:01:26;100611.92;;;6.54;100.00
29063;BME280;71206;48.564;-123.458;2023-11-19T12:03:51;100619.44;;;6.19;100.00
29063;BME280;71206;48.564;-123.458;2023-11-19T12:06:16;100626.20;;;6.66;100.00
29063;BME280;71206;48.564;-123.458;2023-11-19T12:08:41;100631.07;;;5.84;100.00
29063;BME280;71206;48.564;-123.458;2023-11-19T12:11:07;100641.37;;;5.89;100.00
29063;BME280;71206;48.564;-123.458;2023-11-19T12:16:09;100620.84;;;6.50;100.00
29063;BME280;71206;48.564;-123.458;2023-11-19T12:18:24;100623.75;;;6.27;100.00
29063;BME280;71206;48.564;-123.458;2023-11-19T12:20:48;100631.30;;;6.75;100.00
29063;BME280;71206;48.564;-123.458;2023-11-19T12:23:15;100635.58;;;6.15;100.00
29063;BME280;71206;48.564;-123.458;2023-11-19T12:25:39;100633.06;;;6.12;100.00
29063;BME280;71206;48.564;-123.458;2023-11-19T12:28:11;100646.23;;;6.34;100.00
29063;BME280;71206;48.564;-123.458;2023-11-19T12:30:29;100649.23;;;5.56;100.00
29063;BME280;71206;48.564;-123.458;2023-11-19T12:32:55;100661.54;;;5.47;100.00
29063;BME280;71206;48.564;-123.458;2023-11-19T12:35:20;100677.60;;;5.73;100.00